sensor_id;sensor_type;location;lat;lon;timestamp;pressure;altitude;pressure_sealevel;temperature;humidity
51829;BME280;37881;48.024;8.774;2022-09-09T00:04:29;93689.66;;;10.30;88.36
51829;BME280;37881;48.024;8.774;2022-09-09T00:12:22;93686.75;;;10.37;87.34
51829;BME280;37881;48.024;8.774;2022-09-09T00:15:01;93679.56;;;10.20;88.82
51829;BME280;37881;48.024;8.774;2022-09-09T00:17:43;93677.56;;;10.24;88.60
51829;BME280;37881;48.024;8.774;2022-09-09T00:20:42;93670.78;;;10.32;88.36
51829;BME280;37881;48.024;8.774;2022-09-09T00:28:26;93673.03;;;10.14;89.19
51829;BME280;37881;48.024;8.774;2022-09-09T00:30:53;93685.84;;;10.20;88.63
51829;BME280;37881;48.024;8.774;2022-09-09T00:33:24;93674.28;;;10.09;88.84
51829;BME280;37881;48.024;8.774;2022-09-09T00:35:54;93676.56;;;10.14;88.91
51829;BME280;37881;48.024;8.774;2022-09-09T00:38:32;93670.53;;;10.23;88.17
51829;BME280;37881;48.024;8.774;2022-09-09T00:41:11;93671.28;;;10.24;87.65
51829;BME280;37881;48.024;8.774;2022-09-09T00:43:41;93670.47;;;10.27;87.82
51829;BME280;37881;48.024;8.774;2022-09-09T00:59:48;93674.84;;;10.24;88.24
51829;BME280;37881;48.024;8.774;2022-09-09T01:04:53;93670.59;;;10.19;88.34
51829;BME280;37881;48.024;8.774;2022-09-09T01:07:20;93669.53;;;10.13;88.93
51829;BME280;37881;48.024;8.774;2022-09-09T01:09:55;93672.56;;;10.19;89.00
51829;BME280;37881;48.024;8.774;2022-09-09T01:12:41;93665.72;;;10.31;88.24
51829;BME280;37881;48.024;8.774;2022-09-09T01:15:18;93665.22;;;10.36;87.76
51829;BME280;37881;48.024;8.774;2022-09-09T01:17:59;93668.06;;;10.32;87.89
51829;BME280;37881;48.024;8.774;2022-09-09T01:20:46;93658.19;;;10.35;87.58
51829;BME280;37881;48.024;8.774;2022-09-09T01:23:25;93660.69;;;10.26;87.94
51829;BME280;37881;48.024;8.774;2022-09-09T01:26:21;93667.06;;;10.19;89.03
51829;BME280;37881;48.024;8.774;2022-09-09T01:28:50;93659.47;;;10.30;88.50
51829;BME280;37881;48.024;8.774;2022-09-09T01:31:58;93666.22;;;10.22;89.18
51829;BME280;37881;48.024;8.774;2022-09-09T01:34:31;93674.97;;;10.41;88.70
51829;BME280;37881;48.024;8.774;2022-09-09T01:37:06;93667.13;;;10.39;88.27
51829;BME280;37881;48.024;8.774;2022-09-09T01:39:35;93666.44;;;10.35;89.19
51829;BME280;37881;48.024;8.774;2022-09-09T01:42:05;93666.28;;;10.42;88.95
51829;BME280;37881;48.024;8.774;2022-09-09T01:44:34;93674.38;;;10.49;88.64
51829;BME280;37881;48.024;8.774;2022-09-09T01:47:01;93674.97;;;10.61;88.71
51829;BME280;37881;48.024;8.774;2022-09-09T01:49:28;93671.78;;;10.62;88.54
51829;BME280;37881;48.024;8.774;2022-09-09T01:51:56;93666.66;;;10.64;88.68
51829;BME280;37881;48.024;8.774;2022-09-09T01:54:26;93671.09;;;10.78;88.24
51829;BME280;37881;48.024;8.774;2022-09-09T01:57:15;93661.03;;;10.71;88.56
51829;BME280;37881;48.024;8.774;2022-09-09T02:02:36;93651.75;;;10.85;88.79
51829;BME280;37881;48.024;8.774;2022-09-09T02:07:49;93659.09;;;11.08;87.84
51829;BME280;37881;48.024;8.774;2022-09-09T02:10:20;93654.03;;;11.07;87.53
51829;BME280;37881;48.024;8.774;2022-09-09T02:12:50;93649.28;;;10.91;88.00
51829;BME280;37881;48.024;8.774;2022-09-09T02:15:31;93647.00;;;10.86;89.29
51829;BME280;37881;48.024;8.774;2022-09-09T02:18:01;93647.00;;;10.86;88.37
51829;BME280;37881;48.024;8.774;2022-09-09T02:20:31;93660.16;;;10.74;89.72
51829;BME280;37881;48.024;8.774;2022-09-09T02:23:01;93665.81;;;10.47;91.41
51829;BME280;37881;48.024;8.774;2022-09-09T02:25:29;93670.31;;;10.57;92.07
51829;BME280;37881;48.024;8.774;2022-09-09T02:27:56;93676.03;;;10.67;92.03
51829;BME280;37881;48.024;8.774;2022-09-09T02:30:26;93677.56;;;10.88;91.55
51829;BME280;37881;48.024;8.774;2022-09-09T02:32:56;93666.88;;;10.93;92.11
51829;BME280;37881;48.024;8.774;2022-09-09T02:35:25;93670.66;;;10.79;92.24
51829;BME280;37881;48.024;8.774;2022-09-09T02:37:56;93669.97;;;10.95;93.18
51829;BME280;37881;48.024;8.774;2022-09-09T02:40:25;93666.63;;;11.04;92.93
51829;BME280;37881;48.024;8.774;2022-09-09T02:42:54;93674.66;;;11.15;92.10
51829;BME280;37881;48.024;8.774;2022-09-09T02:45:25;93668.88;;;11.09;91.80
51829;BME280;37881;48.024;8.774;2022-09-09T02:48:20;93664.19;;;10.70;93.52
51829;BME280;37881;48.024;8.774;2022-09-09T02:53:50;93668.19;;;11.05;93.84
51829;BME280;37881;48.024;8.774;2022-09-09T02:56:23;93667.72;;;11.27;93.27
51829;BME280;37881;48.024;8.774;2022-09-09T02:58:52;93670.94;;;11.42;93.01
51829;BME280;37881;48.024;8.774;2022-09-09T03:01:18;93673.34;;;11.39;93.04
51829;BME280;37881;48.024;8.774;2022-09-09T03:03:45;93668.13;;;11.09;93.57
51829;BME280;37881;48.024;8.774;2022-09-09T03:06:12;93674.47;;;10.86;93.68
51829;BME280;37881;48.024;8.774;2022-09-09T03:08:40;93665.41;;;10.89;93.93
51829;BME280;37881;48.024;8.774;2022-09-09T03:11:16;93655.94;;;10.90;94.26
51829;BME280;37881;48.024;8.774;2022-09-09T03:13:42;93659.56;;;10.87;95.54
51829;BME280;37881;48.024;8.774;2022-09-09T03:16:09;93660.72;;;11.06;96.28
51829;BME280;37881;48.024;8.774;2022-09-09T03:18:36;93662.53;;;11.12;96.06
51829;BME280;37881;48.024;8.774;2022-09-09T03:21:03;93656.91;;;11.19;96.15
51829;BME280;37881;48.024;8.774;2022-09-09T03:23:30;93659.81;;;11.29;95.83
51829;BME280;37881;48.024;8.774;2022-09-09T03:25:56;93657.69;;;11.36;94.72
51829;BME280;37881;48.024;8.774;2022-09-09T03:28:25;93672.50;;;11.23;95.02
51829;BME280;37881;48.024;8.774;2022-09-09T03:31:04;93684.16;;;11.10;96.34
51829;BME280;37881;48.024;8.774;2022-09-09T03:33:31;93675.09;;;11.13;96.83
51829;BME280;37881;48.024;8.774;2022-09-09T03:35:58;93672.47;;;11.06;96.12
51829;BME280;37881;48.024;8.774;2022-09-09T03:38:25;93661.72;;;10.95;96.94
51829;BME280;37881;48.024;8.774;2022-09-09T03:40:54;93669.59;;;10.93;96.86
51829;BME280;37881;48.024;8.774;2022-09-09T03:43:25;93672.53;;;11.03;96.69
51829;BME280;37881;48.024;8.774;2022-09-09T03:45:52;93676.00;;;11.07;97.12
51829;BME280;37881;48.024;8.774;2022-09-09T03:48:19;93676.09;;;11.03;96.97
51829;BME280;37881;48.024;8.774;2022-09-09T03:50:47;93669.44;;;11.00;98.47
51829;BME280;37881;48.024;8.774;2022-09-09T03:53:15;93679.25;;;11.02;98.46
51829;BME280;37881;48.024;8.774;2022-09-09T03:55:46;93671.94;;;10.95;98.68
51829;BME280;37881;48.024;8.774;2022-09-09T03:58:14;93672.75;;;11.12;98.64
51829;BME280;37881;48.024;8.774;2022-09-09T04:00:41;93670.91;;;11.25;98.71
51829;BME280;37881;48.024;8.774;2022-09-09T04:03:11;93662.66;;;11.25;98.65
51829;BME280;37881;48.024;8.774;2022-09-09T04:05:41;93662.69;;;11.42;98.26
51829;BME280;37881;48.024;8.774;2022-09-09T04:08:08;93658.72;;;11.26;98.61
51829;BME280;37881;48.024;8.774;2022-09-09T04:10:35;93653.91;;;11.30;99.63
51829;BME280;37881;48.024;8.774;2022-09-09T04:13:04;93655.56;;;11.44;99.21
51829;BME280;37881;48.024;8.774;2022-09-09T04:15:31;93663.31;;;11.49;100.00
51829;BME280;37881;48.024;8.774;2022-09-09T04:17:58;93660.38;;;11.56;98.15
51829;BME280;37881;48.024;8.774;2022-09-09T04:20:25;93669.84;;;11.55;97.96
51829;BME280;37881;48.024;8.774;2022-09-09T04:22:52;93662.44;;;11.52;98.45
51829;BME280;37881;48.024;8.774;2022-09-09T04:25:18;93665.94;;;11.53;97.92
51829;BME280;37881;48.024;8.774;2022-09-09T04:27:45;93667.25;;;11.48;98.21
51829;BME280;37881;48.024;8.774;2022-09-09T04:30:12;93661.31;;;11.50;98.64
51829;BME280;37881;48.024;8.774;2022-09-09T04:32:38;93666.06;;;11.49;99.12
51829;BME280;37881;48.024;8.774;2022-09-09T04:35:05;93666.63;;;11.40;99.87
51829;BME280;37881;48.024;8.774;2022-09-09T04:37:32;93658.84;;;11.39;100.00
51829;BME280;37881;48.024;8.774;2022-09-09T04:39:58;93661.81;;;11.28;99.74
51829;BME280;37881;48.024;8.774;2022-09-09T04:42:28;93662.56;;;11.29;100.00
51829;BME280;37881;48.024;8.774;2022-09-09T04:44:55;93659.53;;;11.43;100.00
51829;BME280;37881;48.024;8.774;2022-09-09T04:47:22;93674.38;;;11.46;100.00
51829;BME280;37881;48.024;8.774;2022-09-09T04:49:48;93667.59;;;11.50;100.00
51829;BME280;37881;48.024;8.774;2022-09-09T04:52:16;93660.72;;;11.58;100.00
51829;BME280;37881;48.024;8.774;2022-09-09T04:54:43;93661.59;;;11.72;100.00
51829;BME280;37881;48.024;8.774;2022-09-09T04:57:11;93663.31;;;11.82;100.00
51829;BME280;37881;48.024;8.774;2022-09-09T04:59:44;93664.97;;;11.79;99.39
51829;BME280;37881;48.024;8.774;2022-09-09T05:02:10;93669.66;;;11.79;99.42
51829;BME280;37881;48.024;8.774;2022-09-09T05:04:37;93667.63;;;11.83;99.50
51829;BME280;37881;48.024;8.774;2022-09-09T05:07:04;93664.34;;;11.72;98.33
51829;BME280;37881;48.024;8.774;2022-09-09T05:09:30;93669.44;;;11.73;99.42
51829;BME280;37881;48.024;8.774;2022-09-09T05:11:57;93665.31;;;11.82;98.67
51829;BME280;37881;48.024;8.774;2022-09-09T05:14:25;93667.09;;;11.88;98.73
51829;BME280;37881;48.024;8.774;2022-09-09T05:16:52;93676.94;;;11.89;98.25
51829;BME280;37881;48.024;8.774;2022-09-09T05:19:19;93673.41;;;11.89;98.69
51829;BME280;37881;48.024;8.774;2022-09-09T05:21:46;93674.19;;;11.89;99.27
51829;BME280;37881;48.024;8.774;2022-09-09T05:24:13;93678.72;;;11.96;98.81
51829;BME280;37881;48.024;8.774;2022-09-09T05:26:40;93681.06;;;11.97;98.81
51829;BME280;37881;48.024;8.774;2022-09-09T05:29:07;93678.38;;;12.10;98.27
51829;BME280;37881;48.024;8.774;2022-09-09T05:31:34;93680.09;;;12.21;97.24
51829;BME280;37881;48.024;8.774;2022-09-09T05:34:01;93683.53;;;12.25;97.10
51829;BME280;37881;48.024;8.774;2022-09-09T05:36:28;93677.22;;;12.41;96.05
51829;BME280;37881;48.024;8.774;2022-09-09T05:38:54;93681.88;;;12.44;95.53
51829;BME280;37881;48.024;8.774;2022-09-09T05:41:21;93681.41;;;12.45;95.41
51829;BME280;37881;48.024;8.774;2022-09-09T05:43:49;93679.00;;;12.47;96.01
51829;BME280;37881;48.024;8.774;2022-09-09T05:46:18;93679.13;;;12.44;95.25
51829;BME280;37881;48.024;8.774;2022-09-09T05:48:47;93678.53;;;12.65;94.99
51829;BME280;37881;48.024;8.774;2022-09-09T05:51:16;93676.94;;;12.81;93.99
51829;BME280;37881;48.024;8.774;2022-09-09T05:53:45;93674.88;;;12.97;93.67
51829;BME280;37881;48.024;8.774;2022-09-09T05:56:14;93683.53;;;13.12;92.63
51829;BME280;37881;48.024;8.774;2022-09-09T05:58:41;93682.34;;;13.26;91.93
51829;BME280;37881;48.024;8.774;2022-09-09T06:01:15;93675.88;;;13.46;90.66
51829;BME280;37881;48.024;8.774;2022-09-09T06:03:45;93679.28;;;13.50;89.78
51829;BME280;37881;48.024;8.774;2022-09-09T06:06:14;93682.91;;;13.34;90.57
51829;BME280;37881;48.024;8.774;2022-09-09T06:08:42;93682.59;;;13.32;91.64
51829;BME280;37881;48.024;8.774;2022-09-09T06:11:17;93678.06;;;13.38;90.88
51829;BME280;37881;48.024;8.774;2022-09-09T06:13:44;93687.78;;;13.55;91.09
51829;BME280;37881;48.024;8.774;2022-09-09T06:16:14;93682.19;;;13.85;89.53
51829;BME280;37881;48.024;8.774;2022-09-09T06:18:42;93686.16;;;13.96;88.86
51829;BME280;37881;48.024;8.774;2022-09-09T06:21:14;93688.66;;;14.04;88.69
51829;BME280;37881;48.024;8.774;2022-09-09T06:23:42;93678.47;;;14.26;87.13
51829;BME280;37881;48.024;8.774;2022-09-09T06:26:15;93689.03;;;13.93;87.43
51829;BME280;37881;48.024;8.774;2022-09-09T06:28:46;93697.28;;;14.18;86.48
51829;BME280;37881;48.024;8.774;2022-09-09T06:31:16;93680.47;;;14.26;86.64
51829;BME280;37881;48.024;8.774;2022-09-09T06:33:55;93678.69;;;14.32;85.18
51829;BME280;37881;48.024;8.774;2022-09-09T06:38:50;93693.84;;;14.02;87.06
51829;BME280;37881;48.024;8.774;2022-09-09T06:41:19;93686.91;;;13.84;87.84
51829;BME280;37881;48.024;8.774;2022-09-09T06:43:47;93690.66;;;13.90;89.11
51829;BME280;37881;48.024;8.774;2022-09-09T06:46:18;93699.66;;;14.16;87.04
51829;BME280;37881;48.024;8.774;2022-09-09T06:48:45;93702.16;;;14.62;84.32
51829;BME280;37881;48.024;8.774;2022-09-09T06:51:18;93705.44;;;14.70;83.66
51829;BME280;37881;48.024;8.774;2022-09-09T06:53:45;93701.94;;;15.35;81.05
51829;BME280;37881;48.024;8.774;2022-09-09T06:58:56;93702.00;;;16.26;76.74
51829;BME280;37881;48.024;8.774;2022-09-09T07:01:27;93703.81;;;18.62;66.89
51829;BME280;37881;48.024;8.774;2022-09-09T07:03:55;93700.56;;;21.80;56.84
51829;BME280;37881;48.024;8.774;2022-09-09T07:06:24;93708.50;;;20.73;59.37
51829;BME280;37881;48.024;8.774;2022-09-09T07:08:56;93715.28;;;20.51;58.11
51829;BME280;37881;48.024;8.774;2022-09-09T07:11:27;93716.16;;;18.61;64.24
51829;BME280;37881;48.024;8.774;2022-09-09T07:13:54;93717.81;;;17.40;67.83
51829;BME280;37881;48.024;8.774;2022-09-09T07:16:21;93719.50;;;17.46;69.82
51829;BME280;37881;48.024;8.774;2022-09-09T07:18:52;93715.25;;;18.79;64.29
51829;BME280;37881;48.024;8.774;2022-09-09T07:21:19;93710.53;;;20.58;57.96
51829;BME280;37881;48.024;8.774;2022-09-09T07:23:47;93708.19;;;23.46;50.85
51829;BME280;37881;48.024;8.774;2022-09-09T07:26:17;93716.50;;;21.06;55.81
51829;BME280;37881;48.024;8.774;2022-09-09T07:28:46;93721.47;;;21.90;53.32
51829;BME280;37881;48.024;8.774;2022-09-09T07:31:15;93722.69;;;20.04;58.58
51829;BME280;37881;48.024;8.774;2022-09-09T07:33:44;93724.09;;;19.40;61.57
51829;BME280;37881;48.024;8.774;2022-09-09T07:36:25;93715.94;;;21.96;53.62
51829;BME280;37881;48.024;8.774;2022-09-09T07:39:10;93714.81;;;19.73;59.92
51829;BME280;37881;48.024;8.774;2022-09-09T07:41:39;93726.09;;;20.29;57.78
51829;BME280;37881;48.024;8.774;2022-09-09T07:44:11;93721.50;;;20.11;58.09
51829;BME280;37881;48.024;8.774;2022-09-09T07:46:39;93721.81;;;19.14;61.63
51829;BME280;37881;48.024;8.774;2022-09-09T07:49:07;93728.75;;;18.13;66.05
51829;BME280;37881;48.024;8.774;2022-09-09T07:51:36;93736.44;;;17.67;67.84
51829;BME280;37881;48.024;8.774;2022-09-09T07:54:06;93737.56;;;17.23;70.32
51829;BME280;37881;48.024;8.774;2022-09-09T07:56:33;93734.00;;;17.41;71.49
51829;BME280;37881;48.024;8.774;2022-09-09T07:59:00;93737.88;;;16.88;74.16
51829;BME280;37881;48.024;8.774;2022-09-09T08:01:29;93732.88;;;16.65;73.32
51829;BME280;37881;48.024;8.774;2022-09-09T08:04:00;93739.72;;;17.10;74.97
51829;BME280;37881;48.024;8.774;2022-09-09T08:06:29;93739.56;;;16.86;73.77
51829;BME280;37881;48.024;8.774;2022-09-09T08:08:56;93731.34;;;16.73;73.21
51829;BME280;37881;48.024;8.774;2022-09-09T08:11:24;93744.50;;;17.28;72.22
51829;BME280;37881;48.024;8.774;2022-09-09T08:13:52;93733.88;;;20.75;62.35
51829;BME280;37881;48.024;8.774;2022-09-09T08:16:30;93726.56;;;23.52;51.00
51829;BME280;37881;48.024;8.774;2022-09-09T08:18:58;93723.50;;;23.50;50.50
51829;BME280;37881;48.024;8.774;2022-09-09T08:21:29;93728.84;;;25.23;46.16
51829;BME280;37881;48.024;8.774;2022-09-09T08:23:58;93728.41;;;25.55;45.37
51829;BME280;37881;48.024;8.774;2022-09-09T08:26:28;93737.34;;;24.39;48.98
51829;BME280;37881;48.024;8.774;2022-09-09T08:28:56;93730.97;;;24.78;46.56
51829;BME280;37881;48.024;8.774;2022-09-09T08:31:29;93737.25;;;26.18;44.04
51829;BME280;37881;48.024;8.774;2022-09-09T08:33:57;93739.41;;;24.78;45.95
51829;BME280;37881;48.024;8.774;2022-09-09T08:36:28;93744.47;;;24.00;48.51
51829;BME280;37881;48.024;8.774;2022-09-09T08:38:57;93741.50;;;23.32;49.47
51829;BME280;37881;48.024;8.774;2022-09-09T08:41:40;93743.06;;;21.63;54.43
51829;BME280;37881;48.024;8.774;2022-09-09T08:47:10;93750.94;;;19.82;58.14
51829;BME280;37881;48.024;8.774;2022-09-09T08:50:19;93746.88;;;19.83;58.74
51829;BME280;37881;48.024;8.774;2022-09-09T08:52:54;93743.44;;;18.38;63.73
51829;BME280;37881;48.024;8.774;2022-09-09T08:58:13;93732.00;;;19.86;58.75
51829;BME280;37881;48.024;8.774;2022-09-09T09:06:43;93741.97;;;22.07;52.40
51829;BME280;37881;48.024;8.774;2022-09-09T09:09:21;93744.72;;;23.80;48.67
51829;BME280;37881;48.024;8.774;2022-09-09T09:11:52;93737.03;;;26.46;43.74
51829;BME280;37881;48.024;8.774;2022-09-09T09:14:24;93734.59;;;27.16;39.20
51829;BME280;37881;48.024;8.774;2022-09-09T09:17:06;93728.53;;;27.94;38.80
51829;BME280;37881;48.024;8.774;2022-09-09T09:19:38;93724.16;;;27.55;38.80
51829;BME280;37881;48.024;8.774;2022-09-09T09:25:18;93738.81;;;26.79;39.61
51829;BME280;37881;48.024;8.774;2022-09-09T09:27:49;93731.63;;;25.82;40.81
51829;BME280;37881;48.024;8.774;2022-09-09T09:30:19;93728.72;;;23.15;45.34
51829;BME280;37881;48.024;8.774;2022-09-09T09:33:21;93744.44;;;22.26;47.81
51829;BME280;37881;48.024;8.774;2022-09-09T09:35:45;93731.25;;;23.12;46.63
51829;BME280;37881;48.024;8.774;2022-09-09T09:38:23;93752.69;;;22.84;45.60
51829;BME280;37881;48.024;8.774;2022-09-09T09:41:11;93765.13;;;21.61;50.75
51829;BME280;37881;48.024;8.774;2022-09-09T09:43:40;93781.00;;;20.58;52.35
51829;BME280;37881;48.024;8.774;2022-09-09T09:46:23;93763.50;;;19.92;56.74
51829;BME280;37881;48.024;8.774;2022-09-09T09:49:04;93761.31;;;19.58;57.18
51829;BME280;37881;48.024;8.774;2022-09-09T09:51:35;93759.38;;;20.03;56.96
51829;BME280;37881;48.024;8.774;2022-09-09T09:54:09;93759.34;;;21.44;54.79
51829;BME280;37881;48.024;8.774;2022-09-09T09:56:40;93742.63;;;25.16;43.89
51829;BME280;37881;48.024;8.774;2022-09-09T09:59:35;93738.63;;;23.92;43.44
51829;BME280;37881;48.024;8.774;2022-09-09T10:02:17;93728.06;;;25.76;40.88
51829;BME280;37881;48.024;8.774;2022-09-09T10:04:45;93725.22;;;25.81;39.97
51829;BME280;37881;48.024;8.774;2022-09-09T10:07:18;93735.47;;;26.81;40.68
51829;BME280;37881;48.024;8.774;2022-09-09T10:09:55;93724.78;;;28.23;36.61
51829;BME280;37881;48.024;8.774;2022-09-09T10:12:47;93722.31;;;27.38;38.79
51829;BME280;37881;48.024;8.774;2022-09-09T10:32:42;93709.09;;;23.09;44.90
51829;BME280;37881;48.024;8.774;2022-09-09T10:35:18;93714.41;;;24.46;43.08
51829;BME280;37881;48.024;8.774;2022-09-09T10:38:10;93707.78;;;25.41;40.01
51829;BME280;37881;48.024;8.774;2022-09-09T10:40:43;93708.38;;;26.17;37.71
51829;BME280;37881;48.024;8.774;2022-09-09T10:49:57;93716.81;;;26.17;37.88
51829;BME280;37881;48.024;8.774;2022-09-09T10:54:51;93698.28;;;27.13;33.81
51829;BME280;37881;48.024;8.774;2022-09-09T10:57:37;93696.00;;;26.86;34.64
51829;BME280;37881;48.024;8.774;2022-09-09T11:00:15;93696.09;;;27.24;33.61
51829;BME280;37881;48.024;8.774;2022-09-09T11:02:43;93697.38;;;27.67;32.57
51829;BME280;37881;48.024;8.774;2022-09-09T11:05:16;93695.59;;;26.46;31.91
51829;BME280;37881;48.024;8.774;2022-09-09T11:07:59;93699.91;;;24.13;37.42
51829;BME280;37881;48.024;8.774;2022-09-09T11:13:05;93693.03;;;25.77;33.62
51829;BME280;37881;48.024;8.774;2022-09-09T11:15:45;93693.56;;;26.47;31.59
51829;BME280;37881;48.024;8.774;2022-09-09T11:18:19;93682.59;;;25.24;34.22
51829;BME280;37881;48.024;8.774;2022-09-09T11:20:50;93676.94;;;24.26;34.16
51829;BME280;37881;48.024;8.774;2022-09-09T11:23:42;93681.03;;;24.54;35.37
51829;BME280;37881;48.024;8.774;2022-09-09T11:26:18;93663.66;;;23.76;35.56
51829;BME280;37881;48.024;8.774;2022-09-09T11:40:30;93675.25;;;21.63;38.69
51829;BME280;37881;48.024;8.774;2022-09-09T11:45:35;93671.97;;;20.91;38.83
51829;BME280;37881;48.024;8.774;2022-09-09T11:48:04;93677.34;;;21.42;38.93
51829;BME280;37881;48.024;8.774;2022-09-09T11:50:35;93663.81;;;20.88;39.06
51829;BME280;37881;48.024;8.774;2022-09-09T11:53:19;93665.88;;;20.72;38.48
51829;BME280;37881;48.024;8.774;2022-09-09T11:55:47;93663.53;;;20.65;39.17
51829;BME280;37881;48.024;8.774;2022-09-09T11:58:16;93672.88;;;20.83;38.63
51829;BME280;37881;48.024;8.774;2022-09-09T12:00:46;93675.75;;;21.14;39.66
51829;BME280;37881;48.024;8.774;2022-09-09T12:06:24;93663.31;;;21.88;37.92
51829;BME280;37881;48.024;8.774;2022-09-09T12:09:04;93669.03;;;21.73;36.95
51829;BME280;37881;48.024;8.774;2022-09-09T12:11:32;93661.72;;;21.82;36.94
51829;BME280;37881;48.024;8.774;2022-09-09T12:14:00;93665.06;;;22.18;38.05
51829;BME280;37881;48.024;8.774;2022-09-09T12:16:35;93677.31;;;21.94;38.12
51829;BME280;37881;48.024;8.774;2022-09-09T12:19:22;93662.94;;;22.07;36.24
51829;BME280;37881;48.024;8.774;2022-09-09T12:22:05;93670.13;;;21.82;37.47
51829;BME280;37881;48.024;8.774;2022-09-09T12:24:38;93676.63;;;21.47;37.61
51829;BME280;37881;48.024;8.774;2022-09-09T12:27:16;93683.66;;;21.94;38.12
51829;BME280;37881;48.024;8.774;2022-09-09T12:29:54;93692.41;;;22.08;38.33
51829;BME280;37881;48.024;8.774;2022-09-09T12:32:25;93689.81;;;22.30;38.76
51829;BME280;37881;48.024;8.774;2022-09-09T12:34:53;93702.28;;;23.27;39.04
51829;BME280;37881;48.024;8.774;2022-09-09T12:37:35;93697.03;;;21.85;41.94
51829;BME280;37881;48.024;8.774;2022-09-09T12:40:19;93678.34;;;22.71;39.36
51829;BME280;37881;48.024;8.774;2022-09-09T12:42:46;93680.44;;;22.39;40.19
51829;BME280;37881;48.024;8.774;2022-09-09T12:45:17;93672.13;;;21.29;42.87
51829;BME280;37881;48.024;8.774;2022-09-09T12:50:20;93688.41;;;21.83;40.27
51829;BME280;37881;48.024;8.774;2022-09-09T12:52:50;93676.44;;;20.83;41.64
51829;BME280;37881;48.024;8.774;2022-09-09T12:55:20;93681.47;;;21.26;41.23
51829;BME280;37881;48.024;8.774;2022-09-09T12:57:48;93675.69;;;21.29;40.87
51829;BME280;37881;48.024;8.774;2022-09-09T13:00:22;93678.38;;;20.98;39.24
51829;BME280;37881;48.024;8.774;2022-09-09T13:02:55;93691.97;;;20.34;41.30
51829;BME280;37881;48.024;8.774;2022-09-09T13:05:34;93684.78;;;20.63;40.70
51829;BME280;37881;48.024;8.774;2022-09-09T13:08:03;93680.75;;;20.64;41.28
51829;BME280;37881;48.024;8.774;2022-09-09T13:10:38;93680.63;;;20.73;41.32
51829;BME280;37881;48.024;8.774;2022-09-09T13:13:50;93669.06;;;20.45;42.47
51829;BME280;37881;48.024;8.774;2022-09-09T13:16:29;93667.22;;;20.98;41.17
51829;BME280;37881;48.024;8.774;2022-09-09T13:19:22;93662.59;;;20.53;41.40
51829;BME280;37881;48.024;8.774;2022-09-09T13:21:52;93649.22;;;20.99;41.06
51829;BME280;37881;48.024;8.774;2022-09-09T13:24:34;93650.19;;;20.95;42.45
51829;BME280;37881;48.024;8.774;2022-09-09T13:27:03;93653.13;;;21.07;43.06
51829;BME280;37881;48.024;8.774;2022-09-09T13:29:32;93648.00;;;21.26;41.48
51829;BME280;37881;48.024;8.774;2022-09-09T13:32:06;93643.03;;;20.89;41.95
51829;BME280;37881;48.024;8.774;2022-09-09T13:34:39;93637.03;;;20.75;42.75
51829;BME280;37881;48.024;8.774;2022-09-09T13:37:22;93637.97;;;21.40;41.74
51829;BME280;37881;48.024;8.774;2022-09-09T13:39:52;93631.72;;;21.24;41.42
51829;BME280;37881;48.024;8.774;2022-09-09T13:42:28;93640.97;;;21.10;42.30
51829;BME280;37881;48.024;8.774;2022-09-09T13:44:57;93633.38;;;21.63;41.73
51829;BME280;37881;48.024;8.774;2022-09-09T13:47:34;93627.50;;;21.34;40.11
51829;BME280;37881;48.024;8.774;2022-09-09T13:52:54;93614.28;;;21.87;40.44
51829;BME280;37881;48.024;8.774;2022-09-09T13:55:22;93617.63;;;21.91;40.16
51829;BME280;37881;48.024;8.774;2022-09-09T13:58:01;93622.41;;;21.85;40.65
51829;BME280;37881;48.024;8.774;2022-09-09T14:00:30;93625.69;;;21.52;40.89
51829;BME280;37881;48.024;8.774;2022-09-09T14:02:58;93618.28;;;21.81;40.31
51829;BME280;37881;48.024;8.774;2022-09-09T14:05:32;93624.13;;;21.51;40.79
51829;BME280;37881;48.024;8.774;2022-09-09T14:07:59;93613.28;;;21.32;41.57
51829;BME280;37881;48.024;8.774;2022-09-09T14:10:29;93611.19;;;21.80;40.73
51829;BME280;37881;48.024;8.774;2022-09-09T14:12:56;93622.66;;;21.56;41.19
51829;BME280;37881;48.024;8.774;2022-09-09T14:15:23;93620.75;;;21.41;41.66
51829;BME280;37881;48.024;8.774;2022-09-09T14:17:49;93614.00;;;21.01;41.86
51829;BME280;37881;48.024;8.774;2022-09-09T14:20:16;93625.50;;;21.35;41.42
51829;BME280;37881;48.024;8.774;2022-09-09T14:22:44;93628.53;;;21.58;41.98
51829;BME280;37881;48.024;8.774;2022-09-09T14:25:11;93635.75;;;21.44;42.28
51829;BME280;37881;48.024;8.774;2022-09-09T14:27:40;93641.56;;;20.93;42.15
51829;BME280;37881;48.024;8.774;2022-09-09T14:30:07;93628.97;;;20.22;42.61
51829;BME280;37881;48.024;8.774;2022-09-09T14:32:34;93635.25;;;20.58;42.46
51829;BME280;37881;48.024;8.774;2022-09-09T14:35:01;93653.09;;;20.81;42.04
51829;BME280;37881;48.024;8.774;2022-09-09T14:37:27;93664.81;;;20.49;43.90
51829;BME280;37881;48.024;8.774;2022-09-09T14:39:54;93682.69;;;20.99;43.17
51829;BME280;37881;48.024;8.774;2022-09-09T14:42:21;93681.72;;;20.25;45.19
51829;BME280;37881;48.024;8.774;2022-09-09T14:44:48;93694.84;;;19.89;45.84
51829;BME280;37881;48.024;8.774;2022-09-09T14:47:15;93694.88;;;20.25;44.40
51829;BME280;37881;48.024;8.774;2022-09-09T14:49:41;93687.63;;;20.68;44.42
51829;BME280;37881;48.024;8.774;2022-09-09T14:52:12;93686.59;;;20.86;43.76
51829;BME280;37881;48.024;8.774;2022-09-09T14:54:39;93685.44;;;19.87;44.59
51829;BME280;37881;48.024;8.774;2022-09-09T14:57:06;93690.16;;;20.16;43.37
51829;BME280;37881;48.024;8.774;2022-09-09T14:59:33;93678.69;;;20.08;42.28
51829;BME280;37881;48.024;8.774;2022-09-09T15:02:00;93685.00;;;20.09;42.36
51829;BME280;37881;48.024;8.774;2022-09-09T15:04:30;93694.97;;;20.30;42.48
51829;BME280;37881;48.024;8.774;2022-09-09T15:06:57;93681.03;;;19.80;41.74
51829;BME280;37881;48.024;8.774;2022-09-09T15:09:24;93679.75;;;19.81;42.73
51829;BME280;37881;48.024;8.774;2022-09-09T15:11:51;93682.75;;;19.78;42.64
51829;BME280;37881;48.024;8.774;2022-09-09T15:14:17;93682.31;;;19.25;43.27